createdAt,value
2019-05-07T04:24:43.214Z,13.10
2019-05-07T04:27:33.006Z,11.10
2019-05-07T04:30:19.580Z,13.53
2019-05-07T04:33:03.603Z,14.60
2019-05-07T04:35:53.808Z,17.27
2019-05-07T04:38:54.637Z,24.90
2019-05-07T04:41:37.128Z,26.83
2019-05-07T04:44:19.195Z,16.43
2019-05-07T04:47:04.157Z,12.87
2019-05-07T04:49:44.995Z,14.37
2019-05-07T04:55:22.986Z,15.03
2019-05-07T04:58:09.519Z,13.43
2019-05-07T05:00:53.737Z,12.20
2019-05-07T05:03:38.611Z,13.30
2019-05-07T05:06:19.204Z,14.47
2019-05-07T05:09:02.988Z,10.53
2019-05-07T05:11:46.335Z,15.03
2019-05-07T05:14:28.362Z,12.70
2019-05-07T05:17:12.997Z,12.63
2019-05-07T05:20:03.556Z,11.73
2019-05-07T05:23:08.005Z,11.67
2019-05-07T05:25:52.201Z,13.43
2019-05-07T05:28:34.153Z,10.87
2019-05-07T05:34:22.108Z,9.37
2019-05-07T05:40:22.730Z,11.17
2019-05-07T05:45:56.653Z,11.23
2019-05-07T05:48:42.517Z,12.10
2019-05-07T05:51:46.886Z,11.30
2019-05-07T05:58:03.126Z,12.23
2019-05-07T06:01:04.313Z,12.80
2019-05-07T06:13:20.304Z,13.83
2019-05-07T06:19:34.655Z,12.77
2019-05-07T06:25:24.126Z,15.27
2019-05-07T06:28:12.697Z,13.50
2019-05-07T06:30:54.552Z,11.30
2019-05-07T06:33:36.103Z,13.70
2019-05-07T06:48:49.708Z,12.93
2019-05-07T06:51:32.784Z,16.50
2019-05-07T06:54:14.561Z,14.93
2019-05-07T07:03:26.410Z,13.63
2019-05-07T07:12:41.882Z,14.83
2019-05-07T07:18:48.639Z,14.60
2019-05-07T07:21:22.003Z,12.23
2019-05-07T07:24:04.633Z,14.00
2019-05-07T07:36:34.737Z,14.50
2019-05-07T07:39:16.326Z,12.47
2019-05-07T07:42:02.899Z,13.43
2019-05-07T07:44:44.715Z,13.23
2019-05-07T07:47:28.144Z,14.23
2019-05-07T07:53:25.406Z,12.60
2019-05-07T07:56:26.266Z,13.80
2019-05-07T07:59:33.029Z,11.60
2019-05-07T08:05:40.358Z,12.57
2019-05-07T08:08:22.617Z,11.50
2019-05-07T08:11:04.645Z,11.03
2019-05-07T08:13:47.047Z,12.20
2019-05-07T08:19:54.752Z,14.83
2019-05-07T08:22:36.922Z,13.93
2019-05-07T08:25:19.227Z,12.37
2019-05-07T08:27:49.497Z,14.20
2019-05-07T08:30:38.875Z,13.70
2019-05-07T08:33:25.050Z,14.13
2019-05-07T08:39:32.641Z,11.33
2019-05-07T08:42:14.838Z,14.73
2019-05-07T08:45:03.200Z,14.43
2019-05-07T08:47:48.899Z,13.97
2019-05-07T08:53:29.754Z,11.43
2019-05-07T08:56:12.489Z,14.23
2019-05-07T08:58:55.023Z,11.80
2019-05-07T09:01:38.224Z,10.77
2019-05-07T09:04:21.974Z,12.30
2019-05-07T09:07:03.707Z,14.07
2019-05-07T09:09:45.694Z,11.83
2019-05-07T09:12:27.489Z,8.30
2019-05-07T09:15:08.972Z,9.77
2019-05-07T09:17:52.679Z,9.60
2019-05-07T09:20:35.044Z,7.83
2019-05-07T09:23:17.320Z,9.30
2019-05-07T09:25:59.682Z,9.73
2019-05-07T09:29:02.668Z,11.47
2019-05-07T09:31:47.984Z,9.13
2019-05-07T09:34:32.792Z,9.67
2019-05-07T09:37:17.312Z,10.77
2019-05-07T09:39:59.282Z,9.00
2019-05-07T09:45:54.156Z,8.63
2019-05-07T09:48:35.912Z,10.37
2019-05-07T09:51:23.959Z,7.60
2019-05-07T09:54:06.716Z,10.40
2019-05-07T09:56:48.549Z,8.00
2019-05-07T09:59:32.526Z,9.57
2019-05-07T10:02:14.905Z,7.77
2019-05-07T10:04:57.100Z,8.30
2019-05-07T10:07:38.897Z,7.77
2019-05-07T10:10:22.300Z,7.50
2019-05-07T10:16:07.561Z,7.20
2019-05-07T10:18:48.552Z,6.10
2019-05-07T10:24:37.414Z,9.67
2019-05-07T10:27:21.835Z,8.37
2019-05-07T10:33:29.205Z,7.80
2019-05-07T10:36:12.552Z,7.37
2019-05-07T10:38:54.780Z,10.23
2019-05-07T10:41:36.783Z,9.83
2019-05-07T10:44:22.787Z,8.03
2019-05-07T10:50:38.673Z,7.47
2019-05-07T10:53:33.738Z,8.27
2019-05-07T10:56:15.755Z,9.13
2019-05-07T10:58:57.629Z,7.77
2019-05-07T11:01:44.734Z,7.73
2019-05-07T11:07:35.362Z,10.23
2019-05-07T11:10:17.146Z,8.57
2019-05-07T11:12:59.112Z,7.90
2019-05-07T11:15:29.379Z,6.20
2019-05-07T11:21:11.866Z,7.53
2019-05-07T11:23:53.526Z,6.53
2019-05-07T11:26:35.697Z,9.00
2019-05-07T11:29:16.133Z,8.57
2019-05-07T11:34:56.216Z,9.13
2019-05-07T11:37:36.892Z,7.93
2019-05-07T11:46:44.472Z,5.10
2019-05-07T11:49:45.259Z,8.97
2019-05-07T11:55:57.083Z,6.23
2019-05-07T11:58:43.532Z,9.10
2019-05-07T12:01:43.067Z,6.77
2019-05-07T12:04:12.498Z,8.10
2019-05-07T12:07:02.599Z,5.53
2019-05-07T12:09:46.863Z,6.73
2019-05-07T12:12:32.576Z,12.80
2019-05-07T12:15:16.670Z,11.87
2019-05-07T12:17:59.895Z,9.23
2019-05-07T12:20:42.479Z,7.97
2019-05-07T12:23:24.324Z,9.63
2019-05-07T12:26:06.693Z,6.40
2019-05-07T12:28:48.803Z,4.47
2019-05-07T12:34:49.212Z,8.23
2019-05-07T12:37:32.048Z,4.83
2019-05-07T12:40:14.803Z,6.37
2019-05-07T12:42:56.262Z,6.77
2019-05-07T12:49:03.807Z,8.33
2019-05-07T12:54:55.064Z,7.67
2019-05-07T12:57:38.110Z,6.10
2019-05-07T13:09:42.762Z,4.73
2019-05-07T13:13:04.748Z,7.13
2019-05-07T13:15:55.085Z,5.13
2019-05-07T13:21:56.103Z,5.93
2019-05-07T13:24:45.000Z,5.73
2019-05-07T13:27:31.966Z,5.93
2019-05-07T13:33:07.350Z,5.90
2019-05-07T13:35:57.070Z,8.50
2019-05-07T13:39:04.376Z,4.93
2019-05-07T13:41:56.098Z,5.00
2019-05-07T13:47:42.246Z,5.47
2019-05-07T13:50:25.846Z,5.40
2019-05-07T13:53:07.962Z,4.33
2019-05-07T13:55:50.190Z,3.97
2019-05-07T13:58:33.030Z,4.43
2019-05-07T14:04:24.409Z,5.13
2019-05-07T14:10:38.940Z,5.45
2019-05-07T14:13:21.943Z,4.35
2019-05-07T14:16:11.865Z,5.10
2019-05-07T14:18:58.945Z,4.47
2019-05-07T14:21:42.215Z,4.62
2019-05-07T14:24:25.389Z,3.70
2019-05-07T14:30:16.843Z,4.65
2019-05-07T14:39:08.307Z,4.45
2019-05-07T14:41:56.106Z,5.40
2019-05-07T14:47:49.421Z,4.97
2019-05-07T14:50:32.982Z,3.80
2019-05-07T14:53:14.650Z,4.55
2019-05-07T14:55:56.614Z,5.58
2019-05-07T14:58:38.540Z,6.05
2019-05-07T15:01:22.404Z,4.65
2019-05-07T15:04:04.367Z,4.83
2019-05-07T15:06:46.697Z,4.20
2019-05-07T15:09:17.412Z,5.85
2019-05-07T15:12:02.230Z,4.65
2019-05-07T15:14:44.585Z,8.10
2019-05-07T15:20:26.743Z,6.40
2019-05-07T15:26:18.160Z,6.50
2019-05-07T15:35:17.161Z,6.37
2019-05-07T15:37:58.925Z,5.30
2019-05-07T15:40:42.323Z,4.12
2019-05-07T15:43:28.411Z,4.80
2019-05-07T15:46:17.397Z,5.43
2019-05-07T15:51:57.758Z,4.60
2019-05-07T15:54:40.287Z,5.73
2019-05-07T15:57:26.646Z,5.67
2019-05-07T16:00:08.106Z,4.27
2019-05-07T16:05:37.996Z,4.57
2019-05-07T16:08:20.116Z,4.10
2019-05-07T16:11:03.680Z,6.23
2019-05-07T16:19:32.141Z,6.37
2019-05-07T16:22:22.140Z,6.47
2019-05-07T16:24:51.949Z,7.07
2019-05-07T16:27:22.498Z,4.13
2019-05-07T16:29:52.800Z,7.07
2019-05-07T16:32:24.179Z,6.23
2019-05-07T16:34:54.536Z,6.10
2019-05-07T16:37:24.839Z,8.67
2019-05-07T16:39:55.087Z,5.10
2019-05-07T16:42:25.396Z,5.87
2019-05-07T16:44:55.660Z,4.87
2019-05-07T16:47:25.956Z,4.27
2019-05-07T16:49:56.220Z,5.03
2019-05-07T16:52:26.540Z,6.00
2019-05-07T16:54:56.813Z,3.97
2019-05-07T16:57:51.805Z,3.73
2019-05-07T17:00:28.752Z,5.50
2019-05-07T17:03:02.168Z,4.17
2019-05-07T17:05:33.416Z,3.33
2019-05-07T17:08:22.643Z,4.77
2019-05-07T17:10:52.945Z,4.87
2019-05-07T17:13:23.294Z,3.70
2019-05-07T17:15:57.528Z,5.70
2019-05-07T17:18:28.816Z,4.13
2019-05-07T17:21:01.850Z,4.30
2019-05-07T17:23:43.378Z,5.33
2019-05-07T17:26:04.967Z,3.17
2019-05-07T17:28:36.133Z,5.27
2019-05-07T17:31:06.585Z,4.07
2019-05-07T17:33:37.163Z,4.97
2019-05-07T17:36:07.619Z,4.53
2019-05-07T17:38:38.000Z,4.20
2019-05-07T17:41:13.110Z,4.93
2019-05-07T17:43:40.448Z,3.87
2019-05-07T17:46:12.254Z,4.47
2019-05-07T17:48:43.245Z,3.70
2019-05-07T17:51:32.868Z,3.40
2019-05-07T17:54:04.552Z,5.20
2019-05-07T17:56:36.257Z,3.90
2019-05-07T17:59:07.066Z,4.23
2019-05-07T18:02:01.800Z,7.03
2019-05-07T18:04:47.678Z,8.67
2019-05-07T18:07:06.374Z,4.87
2019-05-07T18:09:37.181Z,3.23
2019-05-07T18:12:09.079Z,4.13
2019-05-07T18:14:39.456Z,3.93
2019-05-07T18:17:30.012Z,4.53
2019-05-07T18:20:02.141Z,5.43
2019-05-07T18:22:34.342Z,3.53
2019-05-07T18:25:05.473Z,3.47
2019-05-07T18:27:37.774Z,4.80
2019-05-07T18:30:08.475Z,5.67
2019-05-07T18:32:45.848Z,3.57
2019-05-07T18:35:16.428Z,5.83
2019-05-07T18:37:52.821Z,7.13
2019-05-07T18:40:25.056Z,5.43
2019-05-07T18:42:56.311Z,4.60
2019-05-07T18:45:27.060Z,3.60
2019-05-07T18:47:57.499Z,5.57
2019-05-07T18:50:27.986Z,4.60
2019-05-07T18:52:58.305Z,7.13
2019-05-07T18:55:28.806Z,7.73
2019-05-07T18:57:59.236Z,7.13
2019-05-07T19:00:34.213Z,5.93
2019-05-07T19:03:04.817Z,9.57
2019-05-07T19:05:35.171Z,7.87
2019-05-07T19:08:08.602Z,6.47
2019-05-07T19:10:39.274Z,4.53
2019-05-07T19:13:10.657Z,4.80
2019-05-07T19:15:41.977Z,5.20
2019-05-07T19:18:12.594Z,5.17
2019-05-07T19:20:43.246Z,3.83
2019-05-07T19:23:14.334Z,5.77
2019-05-07T19:25:46.012Z,4.60
2019-05-07T19:28:16.719Z,6.47
2019-05-07T19:30:48.042Z,5.07
2019-05-07T19:33:18.305Z,3.70
2019-05-07T19:35:48.937Z,3.43
2019-05-07T19:38:19.314Z,4.50
2019-05-07T19:40:49.831Z,3.57
2019-05-07T19:43:20.288Z,3.97
2019-05-07T19:45:52.354Z,3.40
2019-05-07T19:48:23.216Z,4.47
2019-05-07T19:50:53.608Z,4.33
2019-05-07T19:53:23.972Z,6.00
2019-05-07T19:56:06.064Z,8.13
2019-05-07T19:58:36.392Z,4.93
2019-05-07T20:01:07.815Z,5.07
2019-05-07T20:03:38.234Z,5.07
2019-05-07T20:06:08.720Z,6.20
2019-05-07T20:08:43.087Z,4.50
2019-05-07T20:11:23.348Z,5.83
2019-05-07T20:13:53.918Z,6.53
2019-05-07T20:16:24.375Z,5.63
2019-05-07T20:18:54.646Z,6.93
2019-05-07T20:21:24.984Z,6.07
2019-05-07T20:23:55.249Z,4.03
2019-05-07T20:26:25.648Z,8.53
2019-05-07T20:28:56.082Z,6.67
2019-05-07T20:31:26.476Z,4.73
2019-05-07T20:33:56.950Z,5.70
2019-05-07T20:36:27.237Z,6.23
2019-05-07T20:38:57.618Z,6.47
2019-05-07T20:41:28.027Z,6.03
2019-05-07T20:43:58.407Z,4.80
2019-05-07T20:46:28.695Z,7.47
2019-05-07T20:49:02.349Z,5.23
2019-05-07T20:51:32.785Z,6.17
2019-05-07T20:54:09.434Z,8.33
2019-05-07T20:56:46.415Z,6.23
2019-05-07T20:59:15.943Z,6.37
2019-05-07T21:01:46.198Z,7.03
2019-05-07T21:04:16.461Z,8.37
2019-05-07T21:06:46.720Z,4.30
2019-05-07T21:09:17.096Z,5.50
2019-05-07T21:11:47.364Z,6.23
2019-05-07T21:14:17.655Z,7.20
2019-05-07T21:16:47.909Z,4.40
2019-05-07T21:19:18.267Z,6.07
2019-05-07T21:21:48.546Z,5.87
2019-05-07T21:24:18.836Z,5.03
2019-05-07T21:26:49.134Z,5.70
2019-05-07T21:29:19.444Z,6.03
2019-05-07T21:31:49.708Z,5.40
2019-05-07T21:34:20.009Z,5.97
2019-05-07T21:36:52.298Z,5.53
2019-05-07T21:39:22.432Z,6.73
2019-05-07T21:41:52.638Z,9.97
2019-05-07T21:44:25.333Z,7.00
2019-05-07T21:46:54.792Z,4.83
2019-05-07T21:49:25.060Z,5.83
2019-05-07T21:51:55.326Z,7.60
